Dragonfly — WDI2946 — position and weather

sailwx.info

Track history (hours):
 
Tides and Currents Weather Stations Pressure Air Temp Water Temp Dewpoint Dewpoint Depression Visibility Wind Speed Wind Dir Waves Ship Positions

Dragonfly

Owner: Hawkins, Lennie D, Scappoose, OR. More information available from US FCC via Universal Licensing System and Coast Guard Vessel Documentation Center.

Last reported at 2018-Jul-22 19:37 UTC. Time now 2018-Jul-23 17:31 UTC.
Position N 38°29' W 123°21'.

Length 13 m.

Type: Sailing vessel. MMSI: 367683380.

Date/timePositionNaut miles runAvg speedWind from/ knotsBaromVisibWave heightAir tempDewpointWater temp
2018-Jul-22 19:37N 38°29' W 123°21'3 7.1
2018-Jul-22 19:16N 38°27' W 123°19'2 7.0
2018-Jul-22 19:00N 38°26' W 123°18'3 6.7
2018-Jul-22 18:30N 38°23' W 123°15'3 6.5
2018-Jul-22 18:00N 38°21' W 123°12'3 6.7
2018-Jul-22 17:30N 38°19' W 123°09'3 6.6
2018-Jul-22 17:00N 38°17' W 123°05'2 4.2
2018-Jul-22 16:30N 38°18' W 123°03'2 3.2
2018-Jul-22 15:59N 38°20' W 123°03'0 0.0
2018-Jul-22 14:59N 38°20' W 123°03'0 0.0
2018-Jul-22 14:29N 38°20' W 123°03'0 0.1
2018-Jul-22 13:59N 38°20' W 123°03'0 0.1
2018-Jul-22 13:17N 38°20' W 123°03'0 0.0
2018-Jul-22 12:23N 38°20' W 123°03'0 0.0
2018-Jul-22 11:47N 38°20' W 123°03'0 0.0
2018-Jul-22 11:29N 38°20' W 123°03'0 0.0
2018-Jul-22 10:59N 38°20' W 123°03'0 0.0
2018-Jul-22 10:29N 38°20' W 123°03'0 0.0
2018-Jul-22 09:47N 38°20' W 123°03'0 0.0
2018-Jul-22 09:29N 38°20' W 123°03'0 0.0
2018-Jul-22 08:47N 38°20' W 123°03'0 0.0
2018-Jul-22 08:29N 38°20' W 123°03'0 0.0
2018-Jul-22 07:29N 38°20' W 123°03'0 0.0
2018-Jul-22 06:53N 38°20' W 123°03'0 0.0
2018-Jul-22 06:23N 38°20' W 123°03'0 0.0
2018-Jul-22 05:23N 38°20' W 123°03'0 0.0
2018-Jul-22 04:53N 38°20' W 123°03'0 0.0
2018-Jul-22 04:29N 38°20' W 123°03'0 0.0
2018-Jul-22 03:47N 38°20' W 123°03'0 0.0
2018-Jul-22 02:35N 38°20' W 123°03'0 0.0
2018-Jul-22 02:23N 38°20' W 123°03'0 0.0
2018-Jul-22 01:53N 38°20' W 123°03'0 0.0
2018-Jul-22 01:29N 38°20' W 123°03'0 0.0
2018-Jul-22 00:59N 38°20' W 123°03'0 0.0
2018-Jul-22 00:29N 38°20' W 123°03'0 0.0
2018-Jul-21 23:57N 38°20' W 123°03'0 0.0
2018-Jul-21 23:03N 38°20' W 123°03'0 0.0
2018-Jul-21 22:57N 38°20' W 123°03'0 0.0
2018-Jul-21 21:39N 38°20' W 123°03'0 0.0
2018-Jul-21 21:21N 38°20' W 123°03'0 0.0
2018-Jul-21 20:51N 38°20' W 123°03'0 0.0
2018-Jul-21 20:27N 38°20' W 123°03'0 0.0
2018-Jul-21 19:57N 38°20' W 123°03'0 0.1
2018-Jul-21 19:27N 38°20' W 123°03'0 0.1
2018-Jul-21 18:57N 38°20' W 123°03'0 0.0
2018-Jul-21 17:51N 38°20' W 123°03'0 0.0
2018-Jul-21 17:27N 38°20' W 123°03'0 0.0
2018-Jul-21 16:57N 38°20' W 123°03'0 0.0
2018-Jul-21 16:27N 38°20' W 123°03'0 0.0
2018-Jul-21 15:57N 38°20' W 123°03'0 0.0
2018-Jul-21 14:03N 38°20' W 123°03'0 0.0
2018-Jul-21 12:21N 38°20' W 123°03'0 0.0
2018-Jul-21 11:51N 38°20' W 123°03'0 0.0
2018-Jul-21 11:27N 38°20' W 123°03'0 0.0
2018-Jul-21 09:57N 38°20' W 123°03'0 0.1
2018-Jul-21 09:21N 38°20' W 123°03'0 0.0
2018-Jul-21 08:51N 38°20' W 123°03'0 0.1
2018-Jul-21 08:21N 38°20' W 123°03'0 0.0
2018-Jul-21 07:57N 38°20' W 123°03'0 0.0
2018-Jul-21 07:21N 38°20' W 123°03'0 0.0
2018-Jul-21 06:51N 38°20' W 123°03'0 0.0
2018-Jul-21 06:21N 38°20' W 123°03'0 0.0
2018-Jul-21 05:51N 38°20' W 123°03'0 0.1
2018-Jul-21 05:21N 38°20' W 123°03'0 0.1
2018-Jul-21 04:57N 38°20' W 123°03'0 0.0
2018-Jul-21 04:09N 38°20' W 123°03'0 0.0
2018-Jul-21 03:51N 38°20' W 123°03'0 0.0
2018-Jul-21 03:27N 38°20' W 123°03'0 0.0
2018-Jul-21 02:57N 38°20' W 123°03'0 0.0
2018-Jul-21 01:33N 38°20' W 123°03'0 0.0
2018-Jul-21 01:27N 38°20' W 123°03'0 0.0
2018-Jul-20 23:15N 38°20' W 123°03'0 0.0
2018-Jul-20 22:51N 38°20' W 123°03'0 0.0
2018-Jul-20 22:27N 38°20' W 123°03'0 0.0
2018-Jul-20 21:39N 38°20' W 123°03'0 0.0
2018-Jul-20 21:03N 38°20' W 123°03'0 0.2
2018-Jul-20 20:51N 38°20' W 123°03'0 0.1
2018-Jul-20 20:21N 38°20' W 123°03'0 0.0
2018-Jul-20 19:45N 38°20' W 123°03'0 0.0
2018-Jul-20 19:15N 38°20' W 123°03'0 0.0
2018-Jul-20 18:57N 38°20' W 123°03'0 0.0
2018-Jul-20 18:21N 38°20' W 123°03'0 0.1
2018-Jul-20 17:39N 38°20' W 123°03'0 0.2
2018-Jul-20 17:27N 38°20' W 123°03'0 0.0
2018-Jul-20 16:57N 38°20' W 123°03'0 0.0
2018-Jul-20 16:27N 38°20' W 123°03'0 0.0
2018-Jul-20 15:51N 38°20' W 123°03'0 0.0
2018-Jul-20 13:21N 38°20' W 123°03'0 0.0
2018-Jul-20 10:57N 38°20' W 123°03'0 0.0
2018-Jul-20 10:09N 38°20' W 123°03'0 0.1
2018-Jul-20 09:45N 38°20' W 123°03'0 0.2
2018-Jul-20 09:27N 38°20' W 123°03'0 0.1
2018-Jul-20 08:57N 38°20' W 123°03'0 0.1
2018-Jul-20 08:03N 38°20' W 123°03'0 0.0
2018-Jul-20 07:45N 38°20' W 123°03'0 0.0
2018-Jul-20 06:57N 38°20' W 123°03'0 0.0
2018-Jul-20 05:39N 38°20' W 123°03'0 0.1
2018-Jul-20 05:15N 38°20' W 123°03'0 0.2
2018-Jul-20 04:57N 38°20' W 123°03'0 0.1
2018-Jul-20 04:27N 38°20' W 123°03'0 0.1
2018-Jul-20 03:39N 38°20' W 123°03'0 0.0
2018-Jul-20 03:21N 38°20' W 123°03'0 0.0
2018-Jul-20 02:57N 38°20' W 123°03'0 0.0
2018-Jul-20 02:27N 38°20' W 123°03'0 0.0
2018-Jul-20 01:51N 38°20' W 123°03'0 0.0
2018-Jul-20 01:21N 38°20' W 123°03'0 0.0
2018-Jul-20 00:57N 38°20' W 123°03'0 0.0
2018-Jul-20 00:21N 38°20' W 123°03'0 0.0
2018-Jul-19 23:57N 38°20' W 123°03'0 0.0
2018-Jul-19 23:27N 38°20' W 123°03'0 0.0
2018-Jul-19 22:33N 38°20' W 123°03'0 0.0
2018-Jul-19 22:21N 38°20' W 123°03'0 0.0
2018-Jul-19 21:51N 38°20' W 123°03'0 0.0
2018-Jul-19 21:27N 38°20' W 123°03'0 0.0
2018-Jul-19 20:57N 38°20' W 123°03'0 0.0
2018-Jul-19 19:39N 38°20' W 123°03'0 0.2
2018-Jul-19 19:21N 38°20' W 123°03'0 0.0
2018-Jul-19 18:51N 38°20' W 123°03'0 0.0
2018-Jul-19 05:21N 38°20' W 123°03'0 0.0
2018-Jul-19 03:15N 38°20' W 123°03'0 0.0
2018-Jul-19 02:57N 38°20' W 123°03'0 0.0
2018-Jul-19 02:15N 38°20' W 123°03'0 0.0
2018-Jul-19 01:51N 38°20' W 123°03'0 0.0
2018-Jul-18 21:27N 38°20' W 123°03'0 0.0
2018-Jul-18 20:57N 38°20' W 123°03'0 0.0
2018-Jul-18 20:09N 38°20' W 123°03'0 0.1
2018-Jul-18 19:45N 38°20' W 123°03'0 0.0
2018-Jul-18 19:21N 38°20' W 123°03'0 0.0
2018-Jul-18 18:51N 38°20' W 123°03'0 0.1
2018-Jul-18 18:21N 38°20' W 123°03'0 0.0
2018-Jul-18 05:57N 38°20' W 123°03'0 0.0
2018-Jul-18 03:39N 38°20' W 123°03'0 0.0
2018-Jul-18 00:51N 38°20' W 123°03'0 0.0
2018-Jul-17 23:33N 38°20' W 123°03'0 0.0
2018-Jul-17 22:09N 38°20' W 123°03'0 0.0
2018-Jul-17 21:57N 38°20' W 123°03'0 0.0
2018-Jul-17 20:15N 38°20' W 123°03'0 0.0
2018-Jul-17 19:57N 38°20' W 123°03'0 0.0
2018-Jul-17 19:27N 38°20' W 123°03'0 0.0
2018-Jul-17 18:39N 38°20' W 123°03'0 0.2
2018-Jul-17 18:27N 38°20' W 123°03'0 0.0
2018-Jul-17 17:03N 38°20' W 123°03'0 0.2
2018-Jul-17 16:51N 38°20' W 123°03'0 0.0
2018-Jul-17 15:39N 38°20' W 123°03'0 0.0
2018-Jul-17 15:27N 38°20' W 123°03'0 0.0
2018-Jul-17 14:09N 38°20' W 123°03'0 0.0
2018-Jul-17 09:21N 38°20' W 123°03'0 0.0
2018-Jul-17 08:03N 38°20' W 123°03'0 0.1
2018-Jul-17 07:57N 38°20' W 123°03'0 0.0
2018-Jul-17 06:27N 38°20' W 123°03'0 0.0
2018-Jul-17 05:57N 38°20' W 123°03'0 0.0
2018-Jul-17 04:27N 38°20' W 123°03'0 0.0
2018-Jul-17 03:51N 38°20' W 123°03'0 0.0
2018-Jul-17 03:21N 38°20' W 123°03'0 0.0
2018-Jul-17 02:51N 38°20' W 123°03'0 0.0
2018-Jul-17 02:27N 38°20' W 123°03'0 0.0
2018-Jul-17 01:51N 38°20' W 123°03'0 0.0
2018-Jul-16 22:03N 38°20' W 123°03'0 0.0
2018-Jul-16 21:45N 38°20' W 123°03'0 0.0
2018-Jul-16 21:21N 38°20' W 123°03'0 0.0
2018-Jul-16 20:51N 38°20' W 123°03'0 0.0
2018-Jul-16 20:27N 38°20' W 123°03'0 0.0
2018-Jul-16 19:57N 38°20' W 123°03'0 0.0
2018-Jul-16 19:21N 38°20' W 123°03'0 0.0
2018-Jul-16 18:57N 38°20' W 123°03'0 0.0
2018-Jul-16 18:21N 38°20' W 123°03'0 0.0
2018-Jul-16 17:57N 38°20' W 123°03'0 0.1
2018-Jul-16 17:27N 38°20' W 123°03'0 0.1
2018-Jul-16 16:51N 38°20' W 123°03'0 0.0
2018-Jul-16 16:21N 38°20' W 123°03'0 0.0
2018-Jul-16 15:55N 38°20' W 123°03'0 0.0
2018-Jul-16 15:25N 38°20' W 123°03'0 0.0
2018-Jul-16 14:55N 38°20' W 123°03'0 0.0
2018-Jul-16 14:25N 38°20' W 123°03'0 0.0
2018-Jul-16 13:55N 38°20' W 123°03'0 0.0
2018-Jul-16 13:25N 38°20' W 123°03'0 0.0
2018-Jul-16 12:55N 38°20' W 123°03'0 0.0
2018-Jul-16 12:25N 38°20' W 123°03'0 0.0
2018-Jul-16 11:55N 38°20' W 123°03'0 0.0
2018-Jul-16 11:25N 38°20' W 123°03'0 0.0
2018-Jul-16 10:55N 38°20' W 123°03'0 0.0
2018-Jul-16 10:25N 38°20' W 123°03'0 0.0
2018-Jul-16 09:55N 38°20' W 123°03'0 0.1
2018-Jul-16 09:25N 38°20' W 123°03'0 0.1
2018-Jul-16 08:55N 38°20' W 123°03'0 0.0
2018-Jul-16 08:25N 38°20' W 123°03'0 0.0
2018-Jul-16 07:55N 38°20' W 123°03'0 0.0
2018-Jul-16 07:25N 38°20' W 123°03'0 0.0
2018-Jul-16 06:49N 38°20' W 123°03'0 0.0
2018-Jul-16 06:25N 38°20' W 123°03'0 0.0
2018-Jul-16 05:55N 38°20' W 123°03'0 0.0
2018-Jul-16 05:25N 38°20' W 123°03'0 0.0
2018-Jul-16 04:55N 38°20' W 123°03'0 0.0
2018-Jul-16 04:25N 38°20' W 123°03'0 0.0
2018-Jul-16 03:55N 38°20' W 123°03'0 0.0
2018-Jul-16 03:25N 38°20' W 123°03'0 0.0
2018-Jul-16 02:55N 38°20' W 123°03'0 0.0
2018-Jul-16 02:25N 38°20' W 123°03'0 0.0
2018-Jul-16 01:55N 38°20' W 123°03'0 0.0
2018-Jul-16 01:25N 38°20' W 123°03'0 0.0
2018-Jul-16 00:49N 38°20' W 123°03'0 0.0
2018-Jul-16 00:25N 38°20' W 123°03'0 0.0
2018-Jul-15 23:55N 38°20' W 123°03'0 0.0
2018-Jul-15 23:25N 38°20' W 123°03'0 0.1
2018-Jul-15 22:55N 38°20' W 123°03'0 0.1
2018-Jul-15 22:25N 38°20' W 123°03'0 0.0
2018-Jul-15 21:55N 38°20' W 123°03'0 0.1
2018-Jul-15 21:25N 38°20' W 123°03'0 0.1
2018-Jul-15 20:43N 38°20' W 123°03'0 0.0
2018-Jul-15 20:25N 38°20' W 123°03'0 0.1
2018-Jul-15 19:55N 38°20' W 123°03'0 0.1
2018-Jul-15 19:12N 38°20' W 123°03'0 0.0
2018-Jul-15 18:48N 38°20' W 123°03'0 0.0
2018-Jul-15 18:24N 38°20' W 123°03'0 0.0
2018-Jul-15 15:54N 38°20' W 123°03'0 0.0
2018-Jul-15 15:30N 38°20' W 123°03'0 0.0
2018-Jul-15 13:24N 38°20' W 123°03'0 0.0
2018-Jul-15 12:48N 38°20' W 123°03'0 0.0
2018-Jul-15 12:30N 38°20' W 123°03'0 0.0
2018-Jul-15 11:36N 38°20' W 123°03'0 0.0
2018-Jul-15 05:16N 38°20' W 123°03'0 0.0
2018-Jul-15 03:58N 38°20' W 123°03'0 0.0
2018-Jul-15 03:18N 38°20' W 123°03'0 0.0
2018-Jul-15 02:55N 38°20' W 123°03'0 0.0
2018-Jul-15 02:25N 38°20' W 123°03'0 0.1
2018-Jul-15 01:55N 38°20' W 123°03'0 0.1
2018-Jul-15 01:25N 38°20' W 123°03'0 0.0
2018-Jul-15 00:55N 38°20' W 123°03'0 0.0
2018-Jul-15 00:25N 38°20' W 123°03'0 0.0
2018-Jul-14 23:55N 38°20' W 123°03'0 0.0
2018-Jul-14 23:25N 38°20' W 123°03'0 0.0
2018-Jul-14 22:55N 38°20' W 123°03'0 0.0
2018-Jul-14 22:25N 38°20' W 123°03'0 0.0
2018-Jul-14 21:55N 38°20' W 123°03'0 0.1
2018-Jul-14 21:25N 38°20' W 123°03'0 0.1
2018-Jul-14 20:55N 38°20' W 123°03'0 0.0
2018-Jul-14 20:25N 38°20' W 123°03'0 0.1
2018-Jul-14 19:55N 38°20' W 123°03'0 0.1
2018-Jul-14 19:25N 38°20' W 123°03'0 0.0
2018-Jul-14 18:55N 38°20' W 123°03'0 0.1
2018-Jul-14 18:19N 38°20' W 123°03'0 0.1
2018-Jul-14 17:55N 38°20' W 123°03'0 0.0
2018-Jul-14 17:25N 38°20' W 123°03'0 0.0
2018-Jul-14 16:57N 38°20' W 123°03'0 0.1
2018-Jul-14 16:27N 38°20' W 123°03'0 0.1
2018-Jul-14 16:00N 38°20' W 123°03'0 0.0
2018-Jul-14 15:30N 38°20' W 123°03'0 0.0
2018-Jul-14 15:00N 38°20' W 123°03'4 4.2
2018-Jul-14 14:00N 38°16' W 123°03'3 5.6
2018-Jul-14 13:29N 38°13' W 123°03'3 5.7
2018-Jul-14 13:00N 38°10' W 123°03'3 5.7
2018-Jul-14 12:30N 38°07' W 123°04'3 6.1
2018-Jul-14 12:00N 38°04' W 123°04'3 5.8
2018-Jul-14 11:30N 38°01' W 123°05'3 6.4
2018-Jul-14 10:59N 37°58' W 123°05'3 6.8
2018-Jul-14 10:29N 37°56' W 123°01'3 6.8
2018-Jul-14 10:00N 37°55' W 122°57'3 6.7
2018-Jul-14 09:29N 37°54' W 122°53'4 6.7
2018-Jul-14 08:56N 37°52' W 122°49'4 6.6
2018-Jul-14 08:16N 37°50' W 122°44'2 6.3
2018-Jul-14 07:53N 37°48' W 122°41'2 6.1
2018-Jul-14 07:30N 37°47' W 122°39'3 6.2
2018-Jul-14 07:00N 37°44' W 122°38'5 6.2
2018-Jul-14 06:11N 37°39' W 122°38'2 6.3
2018-Jul-14 05:54N 37°37' W 122°37'3 6.4
2018-Jul-14 05:29N 37°34' W 122°37'3 6.4
2018-Jul-14 05:00N 37°31' W 122°37'3 6.3
2018-Jul-14 04:30N 37°28' W 122°36'3 6.3
2018-Jul-14 03:59N 37°25' W 122°36'3 6.3
2018-Jul-14 03:28N 37°22' W 122°36'3 6.0
2018-Jul-14 03:00N 37°19' W 122°34'3 6.0
2018-Jul-14 02:30N 37°17' W 122°32'4 5.9
2018-Jul-14 01:46N 37°13' W 122°29'2 5.9
2018-Jul-14 01:30N 37°12' W 122°28'3 5.9
2018-Jul-14 00:59N 37°09' W 122°26'3 5.6
2018-Jul-14 00:30N 37°07' W 122°24'4 6.0
2018-Jul-13 23:47N 37°03' W 122°22'2 6.0
2018-Jul-13 23:30N 37°02' W 122°21'3 5.8
2018-Jul-13 23:00N 36°59' W 122°19'3 6.2
2018-Jul-13 22:29N 36°56' W 122°17'4 6.3
2018-Jul-13 21:54N 36°53' W 122°15'2 6.0
2018-Jul-13 21:30N 36°51' W 122°14'4 6.8
2018-Jul-13 20:59N 36°48' W 122°12'3 7.2
2018-Jul-13 20:30N 36°44' W 122°10'4 7.3
2018-Jul-13 20:00N 36°41' W 122°08'4 7.0
2018-Jul-13 19:28N 36°38' W 122°06'3 6.6
2018-Jul-13 19:00N 36°35' W 122°05'4 7.1
2018-Jul-13 18:30N 36°32' W 122°03'4 7.7
2018-Jul-13 18:00N 36°28' W 122°01'4 7.0
2018-Jul-13 17:30N 36°25' W 122°00'3 6.9
2018-Jul-13 17:00N 36°21' W 121°59'4 7.2
2018-Jul-13 16:30N 36°18' W 121°57'4 7.5
2018-Jul-13 16:00N 36°15' W 121°55'4 7.1
2018-Jul-13 15:29N 36°12' W 121°52'3 6.5
2018-Jul-13 14:59N 36°09' W 121°50'7 6.7
2018-Jul-13 13:55N 36°03' W 121°45'3 6.7
2018-Jul-13 13:26N 36°01' W 121°42'16 6.5
2018-Jul-13 10:55N 35°47' W 121°32'3 6.2
2018-Jul-13 10:30N 35°45' W 121°30'4 6.8
2018-Jul-13 09:56N 35°41' W 121°27'3 6.9
2018-Jul-13 09:29N 35°39' W 121°25'4 6.9
2018-Jul-13 08:57N 35°35' W 121°23'28 6.5
2018-Jul-13 04:42N 35°11' W 121°08'1 6.6
2018-Jul-13 04:30N 35°09' W 121°08'3 6.7
2018-Jul-13 04:00N 35°06' W 121°06'3 6.5
2018-Jul-13 03:30N 35°03' W 121°04'3 6.6
2018-Jul-13 03:00N 35°01' W 121°02'3 6.6
2018-Jul-13 02:30N 34°58' W 121°00'3 6.5
2018-Jul-13 02:00N 34°55' W 120°58'3 6.4
2018-Jul-13 01:30N 34°52' W 120°56'3 6.3
2018-Jul-13 01:00N 34°49' W 120°55'3 6.3
2018-Jul-13 00:30N 34°46' W 120°53'4 6.2
2018-Jul-12 23:52N 34°43' W 120°52'2 6.2
2018-Jul-12 23:30N 34°40' W 120°50'3 6.3
2018-Jul-12 23:00N 34°38' W 120°49'3 6.4
2018-Jul-12 22:30N 34°35' W 120°47'3 6.5
2018-Jul-12 22:00N 34°32' W 120°46'3 6.5
2018-Jul-12 21:30N 34°29' W 120°44'3 6.5
2018-Jul-12 21:00N 34°27' W 120°41'3 6.6
2018-Jul-12 20:29N 34°26' W 120°37'3 6.8
2018-Jul-12 19:59N 34°25' W 120°33'  
Track history (hours):
 
Tides and Currents Weather Stations Pressure Air Temp Water Temp Dewpoint Dewpoint Depression Visibility Wind Speed Wind Dir Waves Ship Positions

Dragonfly

Owner: Hawkins, Lennie D, Scappoose, OR. More information available from US FCC via Universal Licensing System and Coast Guard Vessel Documentation Center.

Last reported at 2018-Jul-22 19:37 UTC. Time now 2018-Jul-23 17:31 UTC.
Position N 38°29' W 123°21'.

Length 13 m.

Type: Sailing vessel. MMSI: 367683380.

Date/timePositionNaut miles runAvg speedWind from/ knotsBaromVisibWave heightAir tempDewpointWater temp
2018-Jul-22 19:37N 38°29' W 123°21'3 7.1
2018-Jul-22 19:16N 38°27' W 123°19'2 7.0
2018-Jul-22 19:00N 38°26' W 123°18'3 6.7
2018-Jul-22 18:30N 38°23' W 123°15'3 6.5
2018-Jul-22 18:00N 38°21' W 123°12'3 6.7
2018-Jul-22 17:30N 38°19' W 123°09'3 6.6
2018-Jul-22 17:00N 38°17' W 123°05'2 4.2
2018-Jul-22 16:30N 38°18' W 123°03'2 3.2
2018-Jul-22 15:59N 38°20' W 123°03'0 0.0
2018-Jul-22 14:59N 38°20' W 123°03'0 0.0
2018-Jul-22 14:29N 38°20' W 123°03'0 0.1
2018-Jul-22 13:59N 38°20' W 123°03'0 0.1
2018-Jul-22 13:17N 38°20' W 123°03'0 0.0
2018-Jul-22 12:23N 38°20' W 123°03'0 0.0
2018-Jul-22 11:47N 38°20' W 123°03'0 0.0
2018-Jul-22 11:29N 38°20' W 123°03'0 0.0
2018-Jul-22 10:59N 38°20' W 123°03'0 0.0
2018-Jul-22 10:29N 38°20' W 123°03'0 0.0
2018-Jul-22 09:47N 38°20' W 123°03'0 0.0
2018-Jul-22 09:29N 38°20' W 123°03'0 0.0
2018-Jul-22 08:47N 38°20' W 123°03'0 0.0
2018-Jul-22 08:29N 38°20' W 123°03'0 0.0
2018-Jul-22 07:29N 38°20' W 123°03'0 0.0
2018-Jul-22 06:53N 38°20' W 123°03'0 0.0
2018-Jul-22 06:23N 38°20' W 123°03'0 0.0
2018-Jul-22 05:23N 38°20' W 123°03'0 0.0
2018-Jul-22 04:53N 38°20' W 123°03'0 0.0
2018-Jul-22 04:29N 38°20' W 123°03'0 0.0
2018-Jul-22 03:47N 38°20' W 123°03'0 0.0
2018-Jul-22 02:35N 38°20' W 123°03'0 0.0
2018-Jul-22 02:23N 38°20' W 123°03'0 0.0
2018-Jul-22 01:53N 38°20' W 123°03'0 0.0
2018-Jul-22 01:29N 38°20' W 123°03'0 0.0
2018-Jul-22 00:59N 38°20' W 123°03'0 0.0
2018-Jul-22 00:29N 38°20' W 123°03'0 0.0
2018-Jul-21 23:57N 38°20' W 123°03'0 0.0
2018-Jul-21 23:03N 38°20' W 123°03'0 0.0
2018-Jul-21 22:57N 38°20' W 123°03'0 0.0
2018-Jul-21 21:39N 38°20' W 123°03'0 0.0
2018-Jul-21 21:21N 38°20' W 123°03'0 0.0
2018-Jul-21 20:51N 38°20' W 123°03'0 0.0
2018-Jul-21 20:27N 38°20' W 123°03'0 0.0
2018-Jul-21 19:57N 38°20' W 123°03'0 0.1
2018-Jul-21 19:27N 38°20' W 123°03'0 0.1
2018-Jul-21 18:57N 38°20' W 123°03'0 0.0
2018-Jul-21 17:51N 38°20' W 123°03'0 0.0
2018-Jul-21 17:27N 38°20' W 123°03'0 0.0
2018-Jul-21 16:57N 38°20' W 123°03'0 0.0
2018-Jul-21 16:27N 38°20' W 123°03'0 0.0
2018-Jul-21 15:57N 38°20' W 123°03'0 0.0
2018-Jul-21 14:03N 38°20' W 123°03'0 0.0
2018-Jul-21 12:21N 38°20' W 123°03'0 0.0
2018-Jul-21 11:51N 38°20' W 123°03'0 0.0
2018-Jul-21 11:27N 38°20' W 123°03'0 0.0
2018-Jul-21 09:57N 38°20' W 123°03'0 0.1
2018-Jul-21 09:21N 38°20' W 123°03'0 0.0
2018-Jul-21 08:51N 38°20' W 123°03'0 0.1
2018-Jul-21 08:21N 38°20' W 123°03'0 0.0
2018-Jul-21 07:57N 38°20' W 123°03'0 0.0
2018-Jul-21 07:21N 38°20' W 123°03'0 0.0
2018-Jul-21 06:51N 38°20' W 123°03'0 0.0
2018-Jul-21 06:21N 38°20' W 123°03'0 0.0
2018-Jul-21 05:51N 38°20' W 123°03'0 0.1
2018-Jul-21 05:21N 38°20' W 123°03'0 0.1
2018-Jul-21 04:57N 38°20' W 123°03'0 0.0
2018-Jul-21 04:09N 38°20' W 123°03'0 0.0
2018-Jul-21 03:51N 38°20' W 123°03'0 0.0
2018-Jul-21 03:27N 38°20' W 123°03'0 0.0
2018-Jul-21 02:57N 38°20' W 123°03'0 0.0
2018-Jul-21 01:33N 38°20' W 123°03'0 0.0
2018-Jul-21 01:27N 38°20' W 123°03'0 0.0
2018-Jul-20 23:15N 38°20' W 123°03'0 0.0
2018-Jul-20 22:51N 38°20' W 123°03'0 0.0
2018-Jul-20 22:27N 38°20' W 123°03'0 0.0
2018-Jul-20 21:39N 38°20' W 123°03'0 0.0
2018-Jul-20 21:03N 38°20' W 123°03'0 0.2
2018-Jul-20 20:51N 38°20' W 123°03'0 0.1
2018-Jul-20 20:21N 38°20' W 123°03'0 0.0
2018-Jul-20 19:45N 38°20' W 123°03'0 0.0
2018-Jul-20 19:15N 38°20' W 123°03'0 0.0
2018-Jul-20 18:57N 38°20' W 123°03'0 0.0
2018-Jul-20 18:21N 38°20' W 123°03'0 0.1
2018-Jul-20 17:39N 38°20' W 123°03'0 0.2
2018-Jul-20 17:27N 38°20' W 123°03'0 0.0
2018-Jul-20 16:57N 38°20' W 123°03'0 0.0
2018-Jul-20 16:27N 38°20' W 123°03'0 0.0
2018-Jul-20 15:51N 38°20' W 123°03'0 0.0
2018-Jul-20 13:21N 38°20' W 123°03'0 0.0
2018-Jul-20 10:57N 38°20' W 123°03'0 0.0
2018-Jul-20 10:09N 38°20' W 123°03'0 0.1
2018-Jul-20 09:45N 38°20' W 123°03'0 0.2
2018-Jul-20 09:27N 38°20' W 123°03'0 0.1
2018-Jul-20 08:57N 38°20' W 123°03'0 0.1
2018-Jul-20 08:03N 38°20' W 123°03'0 0.0
2018-Jul-20 07:45N 38°20' W 123°03'0 0.0
2018-Jul-20 06:57N 38°20' W 123°03'0 0.0
2018-Jul-20 05:39N 38°20' W 123°03'0 0.1
2018-Jul-20 05:15N 38°20' W 123°03'0 0.2
2018-Jul-20 04:57N 38°20' W 123°03'0 0.1
2018-Jul-20 04:27N 38°20' W 123°03'0 0.1
2018-Jul-20 03:39N 38°20' W 123°03'0 0.0
2018-Jul-20 03:21N 38°20' W 123°03'0 0.0
2018-Jul-20 02:57N 38°20' W 123°03'0 0.0
2018-Jul-20 02:27N 38°20' W 123°03'0 0.0
2018-Jul-20 01:51N 38°20' W 123°03'0 0.0
2018-Jul-20 01:21N 38°20' W 123°03'0 0.0
2018-Jul-20 00:57N 38°20' W 123°03'0 0.0
2018-Jul-20 00:21N 38°20' W 123°03'0 0.0
2018-Jul-19 23:57N 38°20' W 123°03'0 0.0
2018-Jul-19 23:27N 38°20' W 123°03'0 0.0
2018-Jul-19 22:33N 38°20' W 123°03'0 0.0
2018-Jul-19 22:21N 38°20' W 123°03'0 0.0
2018-Jul-19 21:51N 38°20' W 123°03'0 0.0
2018-Jul-19 21:27N 38°20' W 123°03'0 0.0
2018-Jul-19 20:57N 38°20' W 123°03'0 0.0
2018-Jul-19 19:39N 38°20' W 123°03'0 0.2
2018-Jul-19 19:21N 38°20' W 123°03'0 0.0
2018-Jul-19 18:51N 38°20' W 123°03'0 0.0
2018-Jul-19 05:21N 38°20' W 123°03'0 0.0
2018-Jul-19 03:15N 38°20' W 123°03'0 0.0
2018-Jul-19 02:57N 38°20' W 123°03'0 0.0
2018-Jul-19 02:15N 38°20' W 123°03'0 0.0
2018-Jul-19 01:51N 38°20' W 123°03'0 0.0
2018-Jul-18 21:27N 38°20' W 123°03'0 0.0
2018-Jul-18 20:57N 38°20' W 123°03'0 0.0
2018-Jul-18 20:09N 38°20' W 123°03'0 0.1
2018-Jul-18 19:45N 38°20' W 123°03'0 0.0
2018-Jul-18 19:21N 38°20' W 123°03'0 0.0
2018-Jul-18 18:51N 38°20' W 123°03'0 0.1
2018-Jul-18 18:21N 38°20' W 123°03'0 0.0
2018-Jul-18 05:57N 38°20' W 123°03'0 0.0
2018-Jul-18 03:39N 38°20' W 123°03'0 0.0
2018-Jul-18 00:51N 38°20' W 123°03'0 0.0
2018-Jul-17 23:33N 38°20' W 123°03'0 0.0
2018-Jul-17 22:09N 38°20' W 123°03'0 0.0
2018-Jul-17 21:57N 38°20' W 123°03'0 0.0
2018-Jul-17 20:15N 38°20' W 123°03'0 0.0
2018-Jul-17 19:57N 38°20' W 123°03'0 0.0
2018-Jul-17 19:27N 38°20' W 123°03'0 0.0
2018-Jul-17 18:39N 38°20' W 123°03'0 0.2
2018-Jul-17 18:27N 38°20' W 123°03'0 0.0
2018-Jul-17 17:03N 38°20' W 123°03'0 0.2
2018-Jul-17 16:51N 38°20' W 123°03'0 0.0
2018-Jul-17 15:39N 38°20' W 123°03'0 0.0
2018-Jul-17 15:27N 38°20' W 123°03'0 0.0
2018-Jul-17 14:09N 38°20' W 123°03'0 0.0
2018-Jul-17 09:21N 38°20' W 123°03'0 0.0
2018-Jul-17 08:03N 38°20' W 123°03'0 0.1
2018-Jul-17 07:57N 38°20' W 123°03'0 0.0
2018-Jul-17 06:27N 38°20' W 123°03'0 0.0
2018-Jul-17 05:57N 38°20' W 123°03'0 0.0
2018-Jul-17 04:27N 38°20' W 123°03'0 0.0
2018-Jul-17 03:51N 38°20' W 123°03'0 0.0
2018-Jul-17 03:21N 38°20' W 123°03'0 0.0
2018-Jul-17 02:51N 38°20' W 123°03'0 0.0
2018-Jul-17 02:27N 38°20' W 123°03'0 0.0
2018-Jul-17 01:51N 38°20' W 123°03'0 0.0
2018-Jul-16 22:03N 38°20' W 123°03'0 0.0
2018-Jul-16 21:45N 38°20' W 123°03'0 0.0
2018-Jul-16 21:21N 38°20' W 123°03'0 0.0
2018-Jul-16 20:51N 38°20' W 123°03'0 0.0
2018-Jul-16 20:27N 38°20' W 123°03'0 0.0
2018-Jul-16 19:57N 38°20' W 123°03'0 0.0
2018-Jul-16 19:21N 38°20' W 123°03'0 0.0
2018-Jul-16 18:57N 38°20' W 123°03'0 0.0
2018-Jul-16 18:21N 38°20' W 123°03'0 0.0
2018-Jul-16 17:57N 38°20' W 123°03'0 0.1
2018-Jul-16 17:27N 38°20' W 123°03'0 0.1
2018-Jul-16 16:51N 38°20' W 123°03'0 0.0
2018-Jul-16 16:21N 38°20' W 123°03'0 0.0
2018-Jul-16 15:55N 38°20' W 123°03'0 0.0
2018-Jul-16 15:25N 38°20' W 123°03'0 0.0
2018-Jul-16 14:55N 38°20' W 123°03'0 0.0
2018-Jul-16 14:25N 38°20' W 123°03'0 0.0
2018-Jul-16 13:55N 38°20' W 123°03'0 0.0
2018-Jul-16 13:25N 38°20' W 123°03'0 0.0
2018-Jul-16 12:55N 38°20' W 123°03'0 0.0
2018-Jul-16 12:25N 38°20' W 123°03'0 0.0
2018-Jul-16 11:55N 38°20' W 123°03'0 0.0
2018-Jul-16 11:25N 38°20' W 123°03'0 0.0
2018-Jul-16 10:55N 38°20' W 123°03'0 0.0
2018-Jul-16 10:25N 38°20' W 123°03'0 0.0
2018-Jul-16 09:55N 38°20' W 123°03'0 0.1
2018-Jul-16 09:25N 38°20' W 123°03'0 0.1
2018-Jul-16 08:55N 38°20' W 123°03'0 0.0
2018-Jul-16 08:25N 38°20' W 123°03'0 0.0
2018-Jul-16 07:55N 38°20' W 123°03'0 0.0
2018-Jul-16 07:25N 38°20' W 123°03'0 0.0
2018-Jul-16 06:49N 38°20' W 123°03'0 0.0
2018-Jul-16 06:25N 38°20' W 123°03'0 0.0
2018-Jul-16 05:55N 38°20' W 123°03'0 0.0
2018-Jul-16 05:25N 38°20' W 123°03'0 0.0
2018-Jul-16 04:55N 38°20' W 123°03'0 0.0
2018-Jul-16 04:25N 38°20' W 123°03'0 0.0
2018-Jul-16 03:55N 38°20' W 123°03'0 0.0
2018-Jul-16 03:25N 38°20' W 123°03'0 0.0
2018-Jul-16 02:55N 38°20' W 123°03'0 0.0
2018-Jul-16 02:25N 38°20' W 123°03'0 0.0
2018-Jul-16 01:55N 38°20' W 123°03'0 0.0
2018-Jul-16 01:25N 38°20' W 123°03'0 0.0
2018-Jul-16 00:49N 38°20' W 123°03'0 0.0
2018-Jul-16 00:25N 38°20' W 123°03'0 0.0
2018-Jul-15 23:55N 38°20' W 123°03'0 0.0
2018-Jul-15 23:25N 38°20' W 123°03'0 0.1
2018-Jul-15 22:55N 38°20' W 123°03'0 0.1
2018-Jul-15 22:25N 38°20' W 123°03'0 0.0
2018-Jul-15 21:55N 38°20' W 123°03'0 0.1
2018-Jul-15 21:25N 38°20' W 123°03'0 0.1
2018-Jul-15 20:43N 38°20' W 123°03'0 0.0
2018-Jul-15 20:25N 38°20' W 123°03'0 0.1
2018-Jul-15 19:55N 38°20' W 123°03'0 0.1
2018-Jul-15 19:12N 38°20' W 123°03'0 0.0
2018-Jul-15 18:48N 38°20' W 123°03'0 0.0
2018-Jul-15 18:24N 38°20' W 123°03'0 0.0
2018-Jul-15 15:54N 38°20' W 123°03'0 0.0
2018-Jul-15 15:30N 38°20' W 123°03'0 0.0
2018-Jul-15 13:24N 38°20' W 123°03'0 0.0
2018-Jul-15 12:48N 38°20' W 123°03'0 0.0
2018-Jul-15 12:30N 38°20' W 123°03'0 0.0
2018-Jul-15 11:36N 38°20' W 123°03'0 0.0
2018-Jul-15 05:16N 38°20' W 123°03'0 0.0
2018-Jul-15 03:58N 38°20' W 123°03'0 0.0
2018-Jul-15 03:18N 38°20' W 123°03'0 0.0
2018-Jul-15 02:55N 38°20' W 123°03'0 0.0
2018-Jul-15 02:25N 38°20' W 123°03'0 0.1
2018-Jul-15 01:55N 38°20' W 123°03'0 0.1
2018-Jul-15 01:25N 38°20' W 123°03'0 0.0
2018-Jul-15 00:55N 38°20' W 123°03'0 0.0
2018-Jul-15 00:25N 38°20' W 123°03'0 0.0
2018-Jul-14 23:55N 38°20' W 123°03'0 0.0
2018-Jul-14 23:25N 38°20' W 123°03'0 0.0
2018-Jul-14 22:55N 38°20' W 123°03'0 0.0
2018-Jul-14 22:25N 38°20' W 123°03'0 0.0
2018-Jul-14 21:55N 38°20' W 123°03'0 0.1
2018-Jul-14 21:25N 38°20' W 123°03'0 0.1
2018-Jul-14 20:55N 38°20' W 123°03'0 0.0
2018-Jul-14 20:25N 38°20' W 123°03'0 0.1
2018-Jul-14 19:55N 38°20' W 123°03'0 0.1
2018-Jul-14 19:25N 38°20' W 123°03'0 0.0
2018-Jul-14 18:55N 38°20' W 123°03'0 0.1
2018-Jul-14 18:19N 38°20' W 123°03'0 0.1
2018-Jul-14 17:55N 38°20' W 123°03'0 0.0
2018-Jul-14 17:25N 38°20' W 123°03'0 0.0
2018-Jul-14 16:57N 38°20' W 123°03'0 0.1
2018-Jul-14 16:27N 38°20' W 123°03'0 0.1
2018-Jul-14 16:00N 38°20' W 123°03'0 0.0
2018-Jul-14 15:30N 38°20' W 123°03'0 0.0
2018-Jul-14 15:00N 38°20' W 123°03'4 4.2
2018-Jul-14 14:00N 38°16' W 123°03'3 5.6
2018-Jul-14 13:29N 38°13' W 123°03'3 5.7
2018-Jul-14 13:00N 38°10' W 123°03'3 5.7
2018-Jul-14 12:30N 38°07' W 123°04'3 6.1
2018-Jul-14 12:00N 38°04' W 123°04'3 5.8
2018-Jul-14 11:30N 38°01' W 123°05'3 6.4
2018-Jul-14 10:59N 37°58' W 123°05'3 6.8
2018-Jul-14 10:29N 37°56' W 123°01'3 6.8
2018-Jul-14 10:00N 37°55' W 122°57'3 6.7
2018-Jul-14 09:29N 37°54' W 122°53'4 6.7
2018-Jul-14 08:56N 37°52' W 122°49'4 6.6
2018-Jul-14 08:16N 37°50' W 122°44'2 6.3
2018-Jul-14 07:53N 37°48' W 122°41'2 6.1
2018-Jul-14 07:30N 37°47' W 122°39'3 6.2
2018-Jul-14 07:00N 37°44' W 122°38'5 6.2
2018-Jul-14 06:11N 37°39' W 122°38'2 6.3
2018-Jul-14 05:54N 37°37' W 122°37'3 6.4
2018-Jul-14 05:29N 37°34' W 122°37'3 6.4
2018-Jul-14 05:00N 37°31' W 122°37'3 6.3
2018-Jul-14 04:30N 37°28' W 122°36'3 6.3
2018-Jul-14 03:59N 37°25' W 122°36'3 6.3
2018-Jul-14 03:28N 37°22' W 122°36'3 6.0
2018-Jul-14 03:00N 37°19' W 122°34'3 6.0
2018-Jul-14 02:30N 37°17' W 122°32'4 5.9
2018-Jul-14 01:46N 37°13' W 122°29'2 5.9
2018-Jul-14 01:30N 37°12' W 122°28'3 5.9
2018-Jul-14 00:59N 37°09' W 122°26'3 5.6
2018-Jul-14 00:30N 37°07' W 122°24'4 6.0
2018-Jul-13 23:47N 37°03' W 122°22'2 6.0
2018-Jul-13 23:30N 37°02' W 122°21'3 5.8
2018-Jul-13 23:00N 36°59' W 122°19'3 6.2
2018-Jul-13 22:29N 36°56' W 122°17'4 6.3
2018-Jul-13 21:54N 36°53' W 122°15'2 6.0
2018-Jul-13 21:30N 36°51' W 122°14'4 6.8
2018-Jul-13 20:59N 36°48' W 122°12'3 7.2
2018-Jul-13 20:30N 36°44' W 122°10'4 7.3
2018-Jul-13 20:00N 36°41' W 122°08'4 7.0
2018-Jul-13 19:28N 36°38' W 122°06'3 6.6
2018-Jul-13 19:00N 36°35' W 122°05'4 7.1
2018-Jul-13 18:30N 36°32' W 122°03'4 7.7
2018-Jul-13 18:00N 36°28' W 122°01'4 7.0
2018-Jul-13 17:30N 36°25' W 122°00'3 6.9
2018-Jul-13 17:00N 36°21' W 121°59'4 7.2
2018-Jul-13 16:30N 36°18' W 121°57'4 7.5
2018-Jul-13 16:00N 36°15' W 121°55'4 7.1
2018-Jul-13 15:29N 36°12' W 121°52'3 6.5
2018-Jul-13 14:59N 36°09' W 121°50'7 6.7
2018-Jul-13 13:55N 36°03' W 121°45'3 6.7
2018-Jul-13 13:26N 36°01' W 121°42'16 6.5
2018-Jul-13 10:55N 35°47' W 121°32'3 6.2
2018-Jul-13 10:30N 35°45' W 121°30'4 6.8
2018-Jul-13 09:56N 35°41' W 121°27'3 6.9
2018-Jul-13 09:29N 35°39' W 121°25'4 6.9
2018-Jul-13 08:57N 35°35' W 121°23'28 6.5
2018-Jul-13 04:42N 35°11' W 121°08'1 6.6
2018-Jul-13 04:30N 35°09' W 121°08'3 6.7
2018-Jul-13 04:00N 35°06' W 121°06'3 6.5
2018-Jul-13 03:30N 35°03' W 121°04'3 6.6
2018-Jul-13 03:00N 35°01' W 121°02'3 6.6
2018-Jul-13 02:30N 34°58' W 121°00'3 6.5
2018-Jul-13 02:00N 34°55' W 120°58'3 6.4
2018-Jul-13 01:30N 34°52' W 120°56'3 6.3
2018-Jul-13 01:00N 34°49' W 120°55'3 6.3
2018-Jul-13 00:30N 34°46' W 120°53'4 6.2
2018-Jul-12 23:52N 34°43' W 120°52'2 6.2
2018-Jul-12 23:30N 34°40' W 120°50'3 6.3
2018-Jul-12 23:00N 34°38' W 120°49'3 6.4
2018-Jul-12 22:30N 34°35' W 120°47'3 6.5
2018-Jul-12 22:00N 34°32' W 120°46'3 6.5
2018-Jul-12 21:30N 34°29' W 120°44'3 6.5
2018-Jul-12 21:00N 34°27' W 120°41'3 6.6
2018-Jul-12 20:29N 34°26' W 120°37'3 6.8
2018-Jul-12 19:59N 34°25' W 120°33'  

Dump ship's entire track history